sensor_id;sensor_type;location;lat;lon;timestamp;P1;durP1;ratioP1;P2;durP2;ratioP2
54897;SDS011;40800;52.704;6.398;2023-02-27T00:00:47;6.30;;;2.85;;
54897;SDS011;40800;52.704;6.398;2023-02-27T00:03:13;4.68;;;2.90;;
54897;SDS011;40800;52.704;6.398;2023-02-27T00:05:40;6.38;;;3.50;;
54897;SDS011;40800;52.704;6.398;2023-02-27T00:08:06;5.43;;;2.97;;
54897;SDS011;40800;52.704;6.398;2023-02-27T00:10:32;6.38;;;3.28;;
54897;SDS011;40800;52.704;6.398;2023-02-27T00:12:58;6.00;;;3.30;;
54897;SDS011;40800;52.704;6.398;2023-02-27T00:15:24;8.15;;;4.07;;
54897;SDS011;40800;52.704;6.398;2023-02-27T00:17:49;5.95;;;3.42;;
54897;SDS011;40800;52.704;6.398;2023-02-27T00:20:16;7.47;;;4.10;;
54897;SDS011;40800;52.704;6.398;2023-02-27T00:22:43;7.28;;;3.45;;
54897;SDS011;40800;52.704;6.398;2023-02-27T00:25:09;7.53;;;3.60;;
54897;SDS011;40800;52.704;6.398;2023-02-27T00:27:36;7.82;;;3.47;;
54897;SDS011;40800;52.704;6.398;2023-02-27T00:30:03;5.72;;;3.60;;
54897;SDS011;40800;52.704;6.398;2023-02-27T00:32:29;7.47;;;3.95;;
54897;SDS011;40800;52.704;6.398;2023-02-27T00:34:55;10.05;;;3.90;;
54897;SDS011;40800;52.704;6.398;2023-02-27T00:37:20;27.00;;;4.88;;
54897;SDS011;40800;52.704;6.398;2023-02-27T00:39:46;20.50;;;4.30;;
54897;SDS011;40800;52.704;6.398;2023-02-27T00:42:12;17.08;;;4.40;;
54897;SDS011;40800;52.704;6.398;2023-02-27T00:44:37;16.45;;;4.13;;
54897;SDS011;40800;52.704;6.398;2023-02-27T00:47:04;10.65;;;4.43;;
54897;SDS011;40800;52.704;6.398;2023-02-27T00:49:30;11.18;;;4.25;;
54897;SDS011;40800;52.704;6.398;2023-02-27T00:51:56;14.45;;;4.45;;
54897;SDS011;40800;52.704;6.398;2023-02-27T00:54:21;13.18;;;4.55;;
54897;SDS011;40800;52.704;6.398;2023-02-27T00:56:47;9.18;;;4.07;;
54897;SDS011;40800;52.704;6.398;2023-02-27T00:59:12;9.13;;;3.78;;
54897;SDS011;40800;52.704;6.398;2023-02-27T01:01:38;6.43;;;3.88;;
54897;SDS011;40800;52.704;6.398;2023-02-27T01:04:04;8.68;;;4.10;;
54897;SDS011;40800;52.704;6.398;2023-02-27T01:06:29;7.35;;;3.40;;
54897;SDS011;40800;52.704;6.398;2023-02-27T01:08:55;6.18;;;3.33;;
54897;SDS011;40800;52.704;6.398;2023-02-27T01:11:21;6.38;;;3.38;;
54897;SDS011;40800;52.704;6.398;2023-02-27T01:13:46;6.10;;;3.35;;
54897;SDS011;40800;52.704;6.398;2023-02-27T01:16:12;7.63;;;3.70;;
54897;SDS011;40800;52.704;6.398;2023-02-27T01:18:38;6.57;;;4.17;;
54897;SDS011;40800;52.704;6.398;2023-02-27T01:21:04;7.05;;;4.43;;
54897;SDS011;40800;52.704;6.398;2023-02-27T01:23:30;6.47;;;4.30;;
54897;SDS011;40800;52.704;6.398;2023-02-27T01:25:56;5.70;;;4.20;;
54897;SDS011;40800;52.704;6.398;2023-02-27T01:28:22;7.68;;;4.75;;
54897;SDS011;40800;52.704;6.398;2023-02-27T01:30:48;8.60;;;4.47;;
54897;SDS011;40800;52.704;6.398;2023-02-27T01:33:13;23.23;;;5.53;;
54897;SDS011;40800;52.704;6.398;2023-02-27T01:35:39;12.25;;;4.88;;
54897;SDS011;40800;52.704;6.398;2023-02-27T01:38:05;9.50;;;4.97;;
54897;SDS011;40800;52.704;6.398;2023-02-27T01:40:34;16.85;;;5.00;;
54897;SDS011;40800;52.704;6.398;2023-02-27T01:43:01;22.67;;;5.53;;
54897;SDS011;40800;52.704;6.398;2023-02-27T01:45:34;20.60;;;5.50;;
54897;SDS011;40800;52.704;6.398;2023-02-27T01:48:06;15.50;;;5.07;;
54897;SDS011;40800;52.704;6.398;2023-02-27T01:50:36;8.55;;;5.22;;
54897;SDS011;40800;52.704;6.398;2023-02-27T01:53:06;10.05;;;5.20;;
54897;SDS011;40800;52.704;6.398;2023-02-27T01:55:34;11.57;;;5.60;;
54897;SDS011;40800;52.704;6.398;2023-02-27T01:58:02;6.20;;;5.20;;
54897;SDS011;40800;52.704;6.398;2023-02-27T02:00:29;6.95;;;5.00;;
54897;SDS011;40800;52.704;6.398;2023-02-27T02:05:56;7.57;;;5.32;;
54897;SDS011;40800;52.704;6.398;2023-02-27T02:08:24;6.25;;;5.30;;
54897;SDS011;40800;52.704;6.398;2023-02-27T02:10:53;7.57;;;5.43;;
54897;SDS011;40800;52.704;6.398;2023-02-27T02:13:20;6.50;;;5.90;;
54897;SDS011;40800;52.704;6.398;2023-02-27T02:15:49;8.10;;;5.85;;
54897;SDS011;40800;52.704;6.398;2023-02-27T02:18:45;6.68;;;6.07;;
54897;SDS011;40800;52.704;6.398;2023-02-27T02:26:57;7.93;;;6.50;;
54897;SDS011;40800;52.704;6.398;2023-02-27T02:29:36;7.78;;;6.43;;
54897;SDS011;40800;52.704;6.398;2023-02-27T02:41:09;10.93;;;6.70;;
54897;SDS011;40800;52.704;6.398;2023-02-27T02:46:34;15.93;;;6.50;;
54897;SDS011;40800;52.704;6.398;2023-02-27T02:49:16;18.38;;;7.03;;
54897;SDS011;40800;52.704;6.398;2023-02-27T02:52:08;10.93;;;6.50;;
54897;SDS011;40800;52.704;6.398;2023-02-27T02:54:56;12.68;;;6.32;;
54897;SDS011;40800;52.704;6.398;2023-02-27T02:57:30;11.18;;;6.40;;
54897;SDS011;40800;52.704;6.398;2023-02-27T03:00:04;10.82;;;6.50;;
54897;SDS011;40800;52.704;6.398;2023-02-27T03:02:36;10.98;;;6.70;;
54897;SDS011;40800;52.704;6.398;2023-02-27T03:05:14;9.55;;;6.65;;
54897;SDS011;40800;52.704;6.398;2023-02-27T03:10:25;8.40;;;6.93;;
54897;SDS011;40800;52.704;6.398;2023-02-27T03:12:54;9.70;;;6.88;;
54897;SDS011;40800;52.704;6.398;2023-02-27T03:15:29;7.30;;;6.53;;
54897;SDS011;40800;52.704;6.398;2023-02-27T03:18:18;9.07;;;6.85;;
54897;SDS011;40800;52.704;6.398;2023-02-27T03:20:53;7.88;;;6.38;;
54897;SDS011;40800;52.704;6.398;2023-02-27T03:23:41;8.82;;;6.32;;
54897;SDS011;40800;52.704;6.398;2023-02-27T03:26:09;7.78;;;6.72;;
54897;SDS011;40800;52.704;6.398;2023-02-27T03:28:42;8.70;;;6.63;;
54897;SDS011;40800;52.704;6.398;2023-02-27T03:31:40;7.25;;;6.55;;
54897;SDS011;40800;52.704;6.398;2023-02-27T03:34:31;7.32;;;6.55;;
54897;SDS011;40800;52.704;6.398;2023-02-27T03:44:47;8.40;;;6.53;;
54897;SDS011;40800;52.704;6.398;2023-02-27T03:49:45;9.43;;;6.85;;
54897;SDS011;40800;52.704;6.398;2023-02-27T03:52:14;8.50;;;7.10;;
54897;SDS011;40800;52.704;6.398;2023-02-27T03:54:43;8.05;;;6.53;;
54897;SDS011;40800;52.704;6.398;2023-02-27T03:57:17;8.00;;;7.20;;
54897;SDS011;40800;52.704;6.398;2023-02-27T03:59:42;8.10;;;6.90;;
54897;SDS011;40800;52.704;6.398;2023-02-27T04:02:08;9.40;;;6.60;;
54897;SDS011;40800;52.704;6.398;2023-02-27T04:04:34;9.23;;;6.27;;
54897;SDS011;40800;52.704;6.398;2023-02-27T04:07:02;7.78;;;6.68;;
54897;SDS011;40800;52.704;6.398;2023-02-27T04:21:13;9.80;;;7.45;;
54897;SDS011;40800;52.704;6.398;2023-02-27T04:26:43;8.52;;;6.93;;
54897;SDS011;40800;52.704;6.398;2023-02-27T04:34:42;9.10;;;7.87;;
54897;SDS011;40800;52.704;6.398;2023-02-27T04:37:15;8.25;;;7.20;;
54897;SDS011;40800;52.704;6.398;2023-02-27T04:42:24;8.75;;;7.80;;
54897;SDS011;40800;52.704;6.398;2023-02-27T04:44:54;14.82;;;8.00;;
54897;SDS011;40800;52.704;6.398;2023-02-27T04:47:24;15.30;;;8.40;;
54897;SDS011;40800;52.704;6.398;2023-02-27T04:49:55;11.10;;;7.50;;
54897;SDS011;40800;52.704;6.398;2023-02-27T04:52:34;12.07;;;7.82;;
54897;SDS011;40800;52.704;6.398;2023-02-27T04:55:12;13.38;;;8.13;;
54897;SDS011;40800;52.704;6.398;2023-02-27T04:58:03;16.25;;;7.90;;
54897;SDS011;40800;52.704;6.398;2023-02-27T05:00:33;11.70;;;8.00;;
54897;SDS011;40800;52.704;6.398;2023-02-27T05:03:08;16.67;;;8.00;;
54897;SDS011;40800;52.704;6.398;2023-02-27T05:05:38;16.30;;;8.68;;
54897;SDS011;40800;52.704;6.398;2023-02-27T05:11:17;10.23;;;8.30;;
54897;SDS011;40800;52.704;6.398;2023-02-27T05:13:53;9.95;;;8.45;;
54897;SDS011;40800;52.704;6.398;2023-02-27T05:16:30;10.23;;;7.95;;
54897;SDS011;40800;52.704;6.398;2023-02-27T05:19:00;8.80;;;7.43;;
54897;SDS011;40800;52.704;6.398;2023-02-27T05:29:35;12.48;;;7.82;;
54897;SDS011;40800;52.704;6.398;2023-02-27T05:32:19;9.90;;;7.78;;
54897;SDS011;40800;52.704;6.398;2023-02-27T05:37:44;9.13;;;8.07;;
54897;SDS011;40800;52.704;6.398;2023-02-27T05:40:17;9.68;;;8.18;;
54897;SDS011;40800;52.704;6.398;2023-02-27T05:42:48;8.80;;;7.90;;
54897;SDS011;40800;52.704;6.398;2023-02-27T05:45:41;8.93;;;8.13;;
54897;SDS011;40800;52.704;6.398;2023-02-27T05:48:30;16.33;;;8.32;;
54897;SDS011;40800;52.704;6.398;2023-02-27T05:50:57;9.18;;;7.70;;
54897;SDS011;40800;52.704;6.398;2023-02-27T05:53:24;15.93;;;8.63;;
54897;SDS011;40800;52.704;6.398;2023-02-27T05:55:54;10.25;;;8.27;;
54897;SDS011;40800;52.704;6.398;2023-02-27T05:58:28;11.98;;;8.00;;
54897;SDS011;40800;52.704;6.398;2023-02-27T06:01:10;11.15;;;8.52;;
54897;SDS011;40800;52.704;6.398;2023-02-27T06:03:37;10.00;;;8.45;;
54897;SDS011;40800;52.704;6.398;2023-02-27T06:06:05;10.25;;;8.82;;
54897;SDS011;40800;52.704;6.398;2023-02-27T06:08:37;9.65;;;8.60;;
54897;SDS011;40800;52.704;6.398;2023-02-27T06:11:03;9.07;;;8.20;;
54897;SDS011;40800;52.704;6.398;2023-02-27T06:13:28;10.35;;;8.80;;
54897;SDS011;40800;52.704;6.398;2023-02-27T06:15:54;10.07;;;9.15;;
54897;SDS011;40800;52.704;6.398;2023-02-27T06:18:19;9.63;;;8.80;;
54897;SDS011;40800;52.704;6.398;2023-02-27T06:20:46;14.63;;;9.03;;
54897;SDS011;40800;52.704;6.398;2023-02-27T06:23:12;20.17;;;9.23;;
54897;SDS011;40800;52.704;6.398;2023-02-27T06:25:38;14.87;;;9.13;;
54897;SDS011;40800;52.704;6.398;2023-02-27T06:28:04;13.80;;;9.67;;
54897;SDS011;40800;52.704;6.398;2023-02-27T06:30:30;15.02;;;9.10;;
54897;SDS011;40800;52.704;6.398;2023-02-27T06:32:56;12.10;;;8.27;;
54897;SDS011;40800;52.704;6.398;2023-02-27T06:35:22;24.33;;;22.75;;
54897;SDS011;40800;52.704;6.398;2023-02-27T06:37:48;9.20;;;8.43;;
54897;SDS011;40800;52.704;6.398;2023-02-27T06:40:13;9.27;;;8.27;;
54897;SDS011;40800;52.704;6.398;2023-02-27T06:42:40;10.23;;;9.23;;
54897;SDS011;40800;52.704;6.398;2023-02-27T06:45:07;10.98;;;9.15;;
54897;SDS011;40800;52.704;6.398;2023-02-27T06:47:34;12.95;;;9.15;;
54897;SDS011;40800;52.704;6.398;2023-02-27T06:50:00;13.23;;;9.23;;
54897;SDS011;40800;52.704;6.398;2023-02-27T06:52:25;10.80;;;9.73;;
54897;SDS011;40800;52.704;6.398;2023-02-27T06:54:51;15.60;;;10.00;;
54897;SDS011;40800;52.704;6.398;2023-02-27T06:57:17;15.13;;;9.73;;
54897;SDS011;40800;52.704;6.398;2023-02-27T06:59:43;13.37;;;9.90;;
54897;SDS011;40800;52.704;6.398;2023-02-27T07:02:13;14.40;;;9.80;;
54897;SDS011;40800;52.704;6.398;2023-02-27T07:04:39;12.63;;;9.93;;
54897;SDS011;40800;52.704;6.398;2023-02-27T07:07:05;13.63;;;9.87;;
54897;SDS011;40800;52.704;6.398;2023-02-27T07:09:31;10.80;;;9.73;;
54897;SDS011;40800;52.704;6.398;2023-02-27T07:11:58;11.98;;;9.70;;
54897;SDS011;40800;52.704;6.398;2023-02-27T07:14:23;13.02;;;10.63;;
54897;SDS011;40800;52.704;6.398;2023-02-27T07:16:49;11.43;;;10.27;;
54897;SDS011;40800;52.704;6.398;2023-02-27T07:19:18;11.73;;;10.00;;
54897;SDS011;40800;52.704;6.398;2023-02-27T07:21:45;11.07;;;9.93;;
54897;SDS011;40800;52.704;6.398;2023-02-27T07:24:10;11.53;;;10.33;;
54897;SDS011;40800;52.704;6.398;2023-02-27T07:26:36;10.98;;;10.00;;
54897;SDS011;40800;52.704;6.398;2023-02-27T07:29:02;13.40;;;10.60;;
54897;SDS011;40800;52.704;6.398;2023-02-27T07:31:28;11.70;;;10.50;;
54897;SDS011;40800;52.704;6.398;2023-02-27T07:33:54;11.53;;;10.47;;
54897;SDS011;40800;52.704;6.398;2023-02-27T07:36:19;12.43;;;11.25;;
54897;SDS011;40800;52.704;6.398;2023-02-27T07:38:45;12.30;;;11.23;;
54897;SDS011;40800;52.704;6.398;2023-02-27T07:41:11;13.07;;;11.88;;
54897;SDS011;40800;52.704;6.398;2023-02-27T07:43:36;13.35;;;12.25;;
54897;SDS011;40800;52.704;6.398;2023-02-27T07:46:02;13.90;;;12.43;;
54897;SDS011;40800;52.704;6.398;2023-02-27T07:48:29;13.73;;;12.45;;
54897;SDS011;40800;52.704;6.398;2023-02-27T07:50:55;13.43;;;12.23;;
54897;SDS011;40800;52.704;6.398;2023-02-27T07:53:20;13.77;;;12.65;;
54897;SDS011;40800;52.704;6.398;2023-02-27T07:55:46;13.97;;;12.87;;
54897;SDS011;40800;52.704;6.398;2023-02-27T07:58:12;14.20;;;13.10;;
54897;SDS011;40800;52.704;6.398;2023-02-27T08:00:37;15.70;;;14.30;;
54897;SDS011;40800;52.704;6.398;2023-02-27T08:03:03;15.05;;;13.93;;
54897;SDS011;40800;52.704;6.398;2023-02-27T08:05:29;16.00;;;14.73;;
54897;SDS011;40800;52.704;6.398;2023-02-27T08:07:54;16.40;;;15.23;;
54897;SDS011;40800;52.704;6.398;2023-02-27T08:10:20;15.75;;;14.65;;
54897;SDS011;40800;52.704;6.398;2023-02-27T08:12:45;16.75;;;15.32;;
54897;SDS011;40800;52.704;6.398;2023-02-27T08:15:11;16.90;;;15.70;;
54897;SDS011;40800;52.704;6.398;2023-02-27T08:17:37;17.48;;;16.08;;
54897;SDS011;40800;52.704;6.398;2023-02-27T08:20:03;17.25;;;16.02;;
54897;SDS011;40800;52.704;6.398;2023-02-27T08:22:29;17.65;;;16.40;;
54897;SDS011;40800;52.704;6.398;2023-02-27T08:24:55;18.38;;;17.05;;
54897;SDS011;40800;52.704;6.398;2023-02-27T08:27:21;19.25;;;17.85;;
54897;SDS011;40800;52.704;6.398;2023-02-27T08:29:47;18.17;;;17.05;;
54897;SDS011;40800;52.704;6.398;2023-02-27T08:32:12;20.05;;;18.55;;
54897;SDS011;40800;52.704;6.398;2023-02-27T08:34:38;19.23;;;17.92;;
54897;SDS011;40800;52.704;6.398;2023-02-27T08:37:03;21.10;;;19.58;;
54897;SDS011;40800;52.704;6.398;2023-02-27T08:39:29;21.50;;;19.60;;
54897;SDS011;40800;52.704;6.398;2023-02-27T08:41:55;21.15;;;19.65;;
54897;SDS011;40800;52.704;6.398;2023-02-27T08:44:21;21.90;;;20.23;;
54897;SDS011;40800;52.704;6.398;2023-02-27T08:46:47;21.52;;;19.80;;
54897;SDS011;40800;52.704;6.398;2023-02-27T08:49:12;21.85;;;20.15;;
54897;SDS011;40800;52.704;6.398;2023-02-27T08:51:38;22.67;;;20.67;;
54897;SDS011;40800;52.704;6.398;2023-02-27T08:54:04;22.58;;;20.77;;
54897;SDS011;40800;52.704;6.398;2023-02-27T08:56:29;21.88;;;20.38;;
54897;SDS011;40800;52.704;6.398;2023-02-27T08:58:57;23.55;;;21.55;;
54897;SDS011;40800;52.704;6.398;2023-02-27T09:01:23;20.88;;;19.35;;
54897;SDS011;40800;52.704;6.398;2023-02-27T09:03:55;21.50;;;19.52;;
54897;SDS011;40800;52.704;6.398;2023-02-27T09:06:20;21.23;;;19.83;;
54897;SDS011;40800;52.704;6.398;2023-02-27T09:08:46;22.60;;;20.73;;
54897;SDS011;40800;52.704;6.398;2023-02-27T09:11:12;21.02;;;19.00;;
54897;SDS011;40800;52.704;6.398;2023-02-27T09:13:38;20.42;;;18.75;;
54897;SDS011;40800;52.704;6.398;2023-02-27T09:16:03;20.40;;;18.85;;
54897;SDS011;40800;52.704;6.398;2023-02-27T09:18:29;20.77;;;19.17;;
54897;SDS011;40800;52.704;6.398;2023-02-27T09:20:55;20.52;;;18.83;;
54897;SDS011;40800;52.704;6.398;2023-02-27T09:23:20;20.13;;;18.67;;
54897;SDS011;40800;52.704;6.398;2023-02-27T09:25:46;20.60;;;18.90;;
54897;SDS011;40800;52.704;6.398;2023-02-27T09:28:12;18.92;;;17.40;;
54897;SDS011;40800;52.704;6.398;2023-02-27T09:30:38;19.77;;;18.10;;
54897;SDS011;40800;52.704;6.398;2023-02-27T09:33:03;18.90;;;17.30;;
54897;SDS011;40800;52.704;6.398;2023-02-27T09:35:29;19.58;;;18.10;;
54897;SDS011;40800;52.704;6.398;2023-02-27T09:37:55;19.08;;;17.77;;
54897;SDS011;40800;52.704;6.398;2023-02-27T09:40:26;19.02;;;17.63;;
54897;SDS011;40800;52.704;6.398;2023-02-27T09:42:57;19.25;;;17.70;;
54897;SDS011;40800;52.704;6.398;2023-02-27T09:45:27;18.17;;;16.95;;
54897;SDS011;40800;52.704;6.398;2023-02-27T09:47:57;17.42;;;16.02;;
54897;SDS011;40800;52.704;6.398;2023-02-27T09:50:35;16.15;;;15.07;;
54897;SDS011;40800;52.704;6.398;2023-02-27T09:53:17;15.38;;;14.32;;
54897;SDS011;40800;52.704;6.398;2023-02-27T09:55:50;14.35;;;13.35;;
54897;SDS011;40800;52.704;6.398;2023-02-27T10:06:43;11.10;;;9.98;;
54897;SDS011;40800;52.704;6.398;2023-02-27T10:09:33;10.37;;;9.20;;
54897;SDS011;40800;52.704;6.398;2023-02-27T10:12:22;10.23;;;9.25;;
54897;SDS011;40800;52.704;6.398;2023-02-27T10:14:58;9.85;;;8.88;;
54897;SDS011;40800;52.704;6.398;2023-02-27T10:17:35;9.18;;;8.27;;
54897;SDS011;40800;52.704;6.398;2023-02-27T10:20:06;8.88;;;8.02;;
54897;SDS011;40800;52.704;6.398;2023-02-27T10:22:39;8.40;;;7.70;;
54897;SDS011;40800;52.704;6.398;2023-02-27T10:25:14;8.15;;;7.35;;
54897;SDS011;40800;52.704;6.398;2023-02-27T10:27:42;7.68;;;6.90;;
54897;SDS011;40800;52.704;6.398;2023-02-27T10:30:22;7.93;;;6.80;;
54897;SDS011;40800;52.704;6.398;2023-02-27T10:32:57;8.10;;;6.45;;
54897;SDS011;40800;52.704;6.398;2023-02-27T10:35:33;6.57;;;5.63;;
54897;SDS011;40800;52.704;6.398;2023-02-27T10:38:10;8.05;;;5.70;;
54897;SDS011;40800;52.704;6.398;2023-02-27T10:40:39;8.23;;;3.92;;
54897;SDS011;40800;52.704;6.398;2023-02-27T10:43:06;6.85;;;2.67;;
54897;SDS011;40800;52.704;6.398;2023-02-27T10:45:32;6.43;;;2.33;;
54897;SDS011;40800;52.704;6.398;2023-02-27T10:48:00;6.55;;;2.00;;
54897;SDS011;40800;52.704;6.398;2023-02-27T10:52:58;5.15;;;1.85;;
54897;SDS011;40800;52.704;6.398;2023-02-27T10:55:29;6.15;;;2.00;;
54897;SDS011;40800;52.704;6.398;2023-02-27T10:57:57;5.15;;;1.80;;
54897;SDS011;40800;52.704;6.398;2023-02-27T11:00:27;4.30;;;2.05;;
54897;SDS011;40800;52.704;6.398;2023-02-27T11:03:05;5.88;;;1.80;;
54897;SDS011;40800;52.704;6.398;2023-02-27T11:05:42;7.72;;;2.25;;
54897;SDS011;40800;52.704;6.398;2023-02-27T11:08:37;3.80;;;1.80;;
54897;SDS011;40800;52.704;6.398;2023-02-27T11:11:05;7.95;;;2.22;;
54897;SDS011;40800;52.704;6.398;2023-02-27T11:13:43;8.98;;;2.58;;
54897;SDS011;40800;52.704;6.398;2023-02-27T11:16:13;5.90;;;1.92;;
54897;SDS011;40800;52.704;6.398;2023-02-27T11:18:49;4.20;;;1.70;;
54897;SDS011;40800;52.704;6.398;2023-02-27T11:21:23;3.67;;;1.77;;
54897;SDS011;40800;52.704;6.398;2023-02-27T11:24:05;5.10;;;1.65;;
54897;SDS011;40800;52.704;6.398;2023-02-27T11:27:01;4.72;;;1.73;;
54897;SDS011;40800;52.704;6.398;2023-02-27T11:29:29;4.18;;;1.58;;
54897;SDS011;40800;52.704;6.398;2023-02-27T11:31:55;3.67;;;1.75;;
54897;SDS011;40800;52.704;6.398;2023-02-27T11:34:27;4.45;;;1.70;;
54897;SDS011;40800;52.704;6.398;2023-02-27T11:39:51;4.63;;;1.60;;
54897;SDS011;40800;52.704;6.398;2023-02-27T11:42:30;6.65;;;2.03;;
54897;SDS011;40800;52.704;6.398;2023-02-27T11:47:35;2.90;;;1.50;;
54897;SDS011;40800;52.704;6.398;2023-02-27T11:52:50;4.05;;;1.58;;
54897;SDS011;40800;52.704;6.398;2023-02-27T11:55:21;3.20;;;1.30;;
54897;SDS011;40800;52.704;6.398;2023-02-27T11:57:53;2.38;;;1.42;;
54897;SDS011;40800;52.704;6.398;2023-02-27T12:00:29;3.20;;;1.23;;
54897;SDS011;40800;52.704;6.398;2023-02-27T12:05:45;3.90;;;1.10;;
54897;SDS011;40800;52.704;6.398;2023-02-27T12:11:02;2.55;;;1.10;;
54897;SDS011;40800;52.704;6.398;2023-02-27T12:13:34;2.45;;;1.10;;
54897;SDS011;40800;52.704;6.398;2023-02-27T12:16:26;2.53;;;1.23;;
54897;SDS011;40800;52.704;6.398;2023-02-27T12:18:58;6.10;;;1.60;;
54897;SDS011;40800;52.704;6.398;2023-02-27T12:24:51;4.18;;;1.55;;
54897;SDS011;40800;52.704;6.398;2023-02-27T12:30:25;3.67;;;1.42;;
54897;SDS011;40800;52.704;6.398;2023-02-27T12:33:02;2.22;;;1.25;;
54897;SDS011;40800;52.704;6.398;2023-02-27T12:35:32;2.92;;;1.30;;
54897;SDS011;40800;52.704;6.398;2023-02-27T12:37:58;3.00;;;1.40;;
54897;SDS011;40800;52.704;6.398;2023-02-27T12:40:28;3.55;;;1.60;;
54897;SDS011;40800;52.704;6.398;2023-02-27T12:46:16;3.00;;;1.20;;
54897;SDS011;40800;52.704;6.398;2023-02-27T12:48:51;4.25;;;1.70;;
54897;SDS011;40800;52.704;6.398;2023-02-27T12:59:51;2.60;;;1.20;;
54897;SDS011;40800;52.704;6.398;2023-02-27T13:02:44;2.92;;;1.48;;
54897;SDS011;40800;52.704;6.398;2023-02-27T13:08:26;2.40;;;1.05;;
54897;SDS011;40800;52.704;6.398;2023-02-27T13:13:55;2.75;;;1.33;;
54897;SDS011;40800;52.704;6.398;2023-02-27T13:27:07;2.90;;;1.40;;
54897;SDS011;40800;52.704;6.398;2023-02-27T13:32:51;2.20;;;1.33;;
54897;SDS011;40800;52.704;6.398;2023-02-27T13:35:44;4.10;;;1.60;;
54897;SDS011;40800;52.704;6.398;2023-02-27T13:43:55;3.15;;;1.30;;
54897;SDS011;40800;52.704;6.398;2023-02-27T13:46:23;3.05;;;1.40;;
54897;SDS011;40800;52.704;6.398;2023-02-27T13:56:47;3.10;;;1.23;;
54897;SDS011;40800;52.704;6.398;2023-02-27T14:01:57;2.28;;;1.08;;
54897;SDS011;40800;52.704;6.398;2023-02-27T14:04:23;2.15;;;1.00;;
54897;SDS011;40800;52.704;6.398;2023-02-27T14:07:02;2.40;;;1.20;;
54897;SDS011;40800;52.704;6.398;2023-02-27T14:12:02;4.05;;;1.40;;
54897;SDS011;40800;52.704;6.398;2023-02-27T14:14:35;2.03;;;1.20;;
54897;SDS011;40800;52.704;6.398;2023-02-27T14:17:02;2.85;;;1.20;;
54897;SDS011;40800;52.704;6.398;2023-02-27T14:24:39;2.00;;;1.30;;
54897;SDS011;40800;52.704;6.398;2023-02-27T14:29:55;3.13;;;1.38;;
54897;SDS011;40800;52.704;6.398;2023-02-27T14:32:28;2.28;;;1.27;;
54897;SDS011;40800;52.704;6.398;2023-02-27T14:34:57;3.58;;;1.30;;
54897;SDS011;40800;52.704;6.398;2023-02-27T14:37:24;2.28;;;1.27;;
54897;SDS011;40800;52.704;6.398;2023-02-27T14:39:52;2.65;;;1.30;;
54897;SDS011;40800;52.704;6.398;2023-02-27T14:44:59;3.55;;;1.20;;
54897;SDS011;40800;52.704;6.398;2023-02-27T14:47:33;5.45;;;1.40;;
54897;SDS011;40800;52.704;6.398;2023-02-27T14:50:03;1.52;;;0.73;;
54897;SDS011;40800;52.704;6.398;2023-02-27T14:52:31;3.10;;;1.20;;
54897;SDS011;40800;52.704;6.398;2023-02-27T14:55:07;3.00;;;1.30;;
54897;SDS011;40800;52.704;6.398;2023-02-27T14:57:51;3.65;;;1.40;;
54897;SDS011;40800;52.704;6.398;2023-02-27T15:00:35;2.22;;;1.08;;
54897;SDS011;40800;52.704;6.398;2023-02-27T15:03:08;4.30;;;1.15;;
54897;SDS011;40800;52.704;6.398;2023-02-27T15:05:47;3.00;;;1.20;;
54897;SDS011;40800;52.704;6.398;2023-02-27T15:08:22;6.43;;;1.23;;
54897;SDS011;40800;52.704;6.398;2023-02-27T15:10:50;4.97;;;1.38;;
54897;SDS011;40800;52.704;6.398;2023-02-27T15:13:26;2.30;;;1.10;;
54897;SDS011;40800;52.704;6.398;2023-02-27T15:16:19;2.10;;;1.02;;
54897;SDS011;40800;52.704;6.398;2023-02-27T15:18:48;3.45;;;1.58;;
54897;SDS011;40800;52.704;6.398;2023-02-27T15:21:17;1.92;;;1.00;;
54897;SDS011;40800;52.704;6.398;2023-02-27T15:26:20;3.10;;;1.08;;
54897;SDS011;40800;52.704;6.398;2023-02-27T15:28:46;2.20;;;1.20;;
54897;SDS011;40800;52.704;6.398;2023-02-27T15:31:19;3.58;;;1.25;;
54897;SDS011;40800;52.704;6.398;2023-02-27T15:33:47;3.42;;;1.30;;
54897;SDS011;40800;52.704;6.398;2023-02-27T15:36:17;4.50;;;1.35;;
54897;SDS011;40800;52.704;6.398;2023-02-27T15:39:14;4.40;;;1.30;;
54897;SDS011;40800;52.704;6.398;2023-02-27T15:42:00;2.38;;;1.00;;
54897;SDS011;40800;52.704;6.398;2023-02-27T15:44:40;2.38;;;1.20;;
54897;SDS011;40800;52.704;6.398;2023-02-27T15:47:11;9.57;;;1.85;;
54897;SDS011;40800;52.704;6.398;2023-02-27T15:49:45;6.35;;;1.50;;
54897;SDS011;40800;52.704;6.398;2023-02-27T15:52:15;4.70;;;1.20;;
54897;SDS011;40800;52.704;6.398;2023-02-27T15:54:52;3.28;;;1.00;;
54897;SDS011;40800;52.704;6.398;2023-02-27T15:57:23;3.17;;;1.05;;
54897;SDS011;40800;52.704;6.398;2023-02-27T15:59:49;1.65;;;1.05;;
54897;SDS011;40800;52.704;6.398;2023-02-27T16:02:17;2.33;;;1.00;;
54897;SDS011;40800;52.704;6.398;2023-02-27T16:04:50;2.20;;;0.90;;
54897;SDS011;40800;52.704;6.398;2023-02-27T16:07:18;3.10;;;1.27;;
54897;SDS011;40800;52.704;6.398;2023-02-27T16:09:47;3.55;;;1.35;;
54897;SDS011;40800;52.704;6.398;2023-02-27T16:12:21;2.50;;;1.20;;
54897;SDS011;40800;52.704;6.398;2023-02-27T16:14:47;2.83;;;1.50;;
54897;SDS011;40800;52.704;6.398;2023-02-27T16:19:56;3.83;;;1.25;;
54897;SDS011;40800;52.704;6.398;2023-02-27T16:22:24;3.67;;;1.10;;
54897;SDS011;40800;52.704;6.398;2023-02-27T16:24:50;5.03;;;1.38;;
54897;SDS011;40800;52.704;6.398;2023-02-27T16:27:26;5.93;;;1.30;;
54897;SDS011;40800;52.704;6.398;2023-02-27T16:29:54;3.47;;;1.42;;
54897;SDS011;40800;52.704;6.398;2023-02-27T16:32:27;3.25;;;1.38;;
54897;SDS011;40800;52.704;6.398;2023-02-27T16:35:19;6.47;;;1.40;;
54897;SDS011;40800;52.704;6.398;2023-02-27T16:37:47;5.72;;;1.58;;
54897;SDS011;40800;52.704;6.398;2023-02-27T16:40:18;8.57;;;1.77;;
54897;SDS011;40800;52.704;6.398;2023-02-27T16:42:44;12.27;;;2.20;;
54897;SDS011;40800;52.704;6.398;2023-02-27T16:45:14;8.70;;;1.90;;
54897;SDS011;40800;52.704;6.398;2023-02-27T16:47:41;8.18;;;2.20;;
54897;SDS011;40800;52.704;6.398;2023-02-27T16:50:14;4.22;;;2.08;;
54897;SDS011;40800;52.704;6.398;2023-02-27T16:52:47;4.32;;;1.30;;
54897;SDS011;40800;52.704;6.398;2023-02-27T16:55:13;5.75;;;1.75;;
54897;SDS011;40800;52.704;6.398;2023-02-27T16:57:39;4.32;;;1.50;;
54897;SDS011;40800;52.704;6.398;2023-02-27T17:00:04;5.07;;;1.60;;
54897;SDS011;40800;52.704;6.398;2023-02-27T17:02:33;3.40;;;1.50;;
54897;SDS011;40800;52.704;6.398;2023-02-27T17:04:59;6.43;;;1.58;;
54897;SDS011;40800;52.704;6.398;2023-02-27T17:07:26;5.25;;;1.40;;
54897;SDS011;40800;52.704;6.398;2023-02-27T17:09:51;3.78;;;1.40;;
54897;SDS011;40800;52.704;6.398;2023-02-27T17:12:17;3.75;;;1.52;;
54897;SDS011;40800;52.704;6.398;2023-02-27T17:14:42;4.22;;;1.38;;
54897;SDS011;40800;52.704;6.398;2023-02-27T17:17:08;2.88;;;1.20;;
54897;SDS011;40800;52.704;6.398;2023-02-27T17:19:35;5.07;;;1.60;;
54897;SDS011;40800;52.704;6.398;2023-02-27T17:22:01;5.07;;;1.33;;
54897;SDS011;40800;52.704;6.398;2023-02-27T17:24:27;5.22;;;1.55;;
54897;SDS011;40800;52.704;6.398;2023-02-27T17:26:52;4.47;;;1.40;;
54897;SDS011;40800;52.704;6.398;2023-02-27T17:29:18;3.90;;;1.42;;
54897;SDS011;40800;52.704;6.398;2023-02-27T17:31:44;4.75;;;1.40;;
54897;SDS011;40800;52.704;6.398;2023-02-27T17:34:10;4.10;;;1.63;;
54897;SDS011;40800;52.704;6.398;2023-02-27T17:36:36;3.28;;;1.60;;
54897;SDS011;40800;52.704;6.398;2023-02-27T17:39:02;4.57;;;1.67;;
54897;SDS011;40800;52.704;6.398;2023-02-27T17:41:28;3.40;;;1.50;;
54897;SDS011;40800;52.704;6.398;2023-02-27T17:46:21;2.78;;;1.60;;
54897;SDS011;40800;52.704;6.398;2023-02-27T17:48:48;4.00;;;1.55;;